createdAt,value
2023-01-12T00:02:16.681Z,7.28
2023-01-12T00:04:49.897Z,7.03
2023-01-12T00:07:23.755Z,7.22
2023-01-12T00:09:54.322Z,7.03
2023-01-12T00:12:27.776Z,7.30
2023-01-12T00:14:59.774Z,7.50
2023-01-12T00:17:32.901Z,6.83
2023-01-12T00:20:05.164Z,7.30
2023-01-12T00:22:37.165Z,6.90
2023-01-12T00:25:10.071Z,7.20
2023-01-12T00:27:42.802Z,6.92
2023-01-12T00:30:17.976Z,6.87
2023-01-12T00:32:49.997Z,6.30
2023-01-12T00:35:23.651Z,5.78
2023-01-12T00:37:58.074Z,6.70
2023-01-12T00:40:37.658Z,6.00
2023-01-12T00:43:28.968Z,6.15
2023-01-12T00:46:01.005Z,6.00
2023-01-12T00:48:36.207Z,5.83
2023-01-12T00:51:07.984Z,5.70
2023-01-12T00:53:40.268Z,6.23
2023-01-12T00:56:12.202Z,5.63
2023-01-12T00:58:45.659Z,5.70
2023-01-12T01:01:18.897Z,5.30
2023-01-12T01:03:49.702Z,5.80
2023-01-12T01:06:21.098Z,4.87
2023-01-12T01:08:52.191Z,5.33
2023-01-12T01:11:23.308Z,5.92
2023-01-12T01:13:57.607Z,5.37
2023-01-12T01:16:28.357Z,5.07
2023-01-12T01:18:59.918Z,5.70
2023-01-12T01:21:32.225Z,4.43
2023-01-12T01:24:02.893Z,4.75
2023-01-12T01:26:35.787Z,5.15
2023-01-12T01:29:10.068Z,5.00
2023-01-12T01:31:42.090Z,4.62
2023-01-12T01:34:13.808Z,4.22
2023-01-12T01:36:45.430Z,4.10
2023-01-12T01:39:16.793Z,4.12
2023-01-12T01:41:48.210Z,3.95
2023-01-12T01:44:38.216Z,3.70
2023-01-12T01:47:21.677Z,3.60
2023-01-12T01:49:56.909Z,3.70
2023-01-12T01:52:40.447Z,5.10
2023-01-12T01:55:23.289Z,3.30
2023-01-12T01:58:02.505Z,3.47
2023-01-12T02:00:40.665Z,3.58
2023-01-12T02:03:13.797Z,3.02
2023-01-12T02:05:47.704Z,3.45
2023-01-12T02:08:35.044Z,3.20
2023-01-12T02:11:08.745Z,3.25
2023-01-12T02:13:58.233Z,2.85
2023-01-12T02:16:34.883Z,2.70
2023-01-12T02:19:18.168Z,3.30
2023-01-12T02:22:00.589Z,2.80
2023-01-12T02:24:49.237Z,2.90
2023-01-12T02:27:34.483Z,2.80
2023-01-12T02:30:16.775Z,2.83
2023-01-12T02:33:01.969Z,3.42
2023-01-12T02:35:38.355Z,3.12
2023-01-12T02:38:26.730Z,2.70
2023-01-12T02:41:03.114Z,2.70
2023-01-12T02:43:38.310Z,3.00
2023-01-12T02:46:17.865Z,2.90
2023-01-12T02:49:03.210Z,3.27
2023-01-12T02:51:57.327Z,2.90
2023-01-12T02:54:32.820Z,2.70
2023-01-12T02:57:12.544Z,2.72
2023-01-12T02:59:46.936Z,2.47
2023-01-12T03:02:20.953Z,2.67
2023-01-12T03:04:51.635Z,2.95
2023-01-12T03:07:41.732Z,2.77
2023-01-12T03:10:21.474Z,2.85
2023-01-12T03:12:55.907Z,2.55
2023-01-12T03:15:30.155Z,2.47
2023-01-12T03:18:07.277Z,2.30
2023-01-12T03:20:43.574Z,2.60
2023-01-12T03:23:18.891Z,2.65
2023-01-12T03:25:52.456Z,2.45
2023-01-12T03:28:25.680Z,2.87
2023-01-12T03:31:03.689Z,3.12
2023-01-12T03:33:37.590Z,2.40
2023-01-12T03:36:23.230Z,2.58
2023-01-12T03:38:59.579Z,2.40
2023-01-12T03:41:36.107Z,2.10
2023-01-12T03:44:11.006Z,2.55
2023-01-12T03:46:44.587Z,2.60
2023-01-12T03:49:26.603Z,2.45
2023-01-12T03:52:03.279Z,2.27
2023-01-12T03:54:37.641Z,2.15
2023-01-12T03:57:12.156Z,1.92
2023-01-12T03:59:43.143Z,2.23
2023-01-12T04:02:14.728Z,2.08
2023-01-12T04:04:45.407Z,2.47
2023-01-12T04:07:17.576Z,1.77
2023-01-12T04:09:48.247Z,2.53
2023-01-12T04:12:19.434Z,2.22
2023-01-12T04:14:52.939Z,2.02
2023-01-12T04:17:25.415Z,2.00
2023-01-12T04:19:55.964Z,2.35
2023-01-12T04:22:44.462Z,2.10
2023-01-12T04:25:19.388Z,2.27
2023-01-12T04:27:56.956Z,1.92
2023-01-12T04:30:29.714Z,2.17
2023-01-12T04:33:03.222Z,2.20
2023-01-12T04:35:36.716Z,1.95
2023-01-12T04:38:10.311Z,2.50
2023-01-12T04:40:40.874Z,2.15
2023-01-12T04:43:12.139Z,2.20
2023-01-12T04:45:43.931Z,2.00
2023-01-12T04:48:16.583Z,1.72
2023-01-12T04:50:47.396Z,2.12
2023-01-12T04:53:17.937Z,2.30
2023-01-12T04:55:50.297Z,3.43
2023-01-12T04:58:20.999Z,2.67
2023-01-12T05:00:52.313Z,1.95
2023-01-12T05:03:22.927Z,2.27
2023-01-12T05:05:53.506Z,2.23
2023-01-12T05:08:42.020Z,1.90
2023-01-12T05:11:13.163Z,2.25
2023-01-12T05:13:45.079Z,2.02
2023-01-12T05:16:18.359Z,2.30
2023-01-12T05:18:50.375Z,1.90
2023-01-12T05:21:25.109Z,2.08
2023-01-12T05:23:57.885Z,1.93
2023-01-12T05:26:32.930Z,2.30
2023-01-12T05:29:03.142Z,2.90
2023-01-12T05:31:35.874Z,2.10
2023-01-12T05:34:07.372Z,2.40
2023-01-12T05:36:37.953Z,2.52
2023-01-12T05:39:10.360Z,2.37
2023-01-12T05:41:45.808Z,1.72
2023-01-12T05:44:18.932Z,2.20
2023-01-12T05:46:50.554Z,2.33
2023-01-12T05:49:21.003Z,2.00
2023-01-12T05:51:51.673Z,1.90
2023-01-12T05:54:24.143Z,1.90
2023-01-12T05:56:58.215Z,1.80
2023-01-12T05:59:29.779Z,2.10
2023-01-12T06:02:01.954Z,1.85
2023-01-12T06:04:34.508Z,2.05
2023-01-12T06:07:05.935Z,2.40
2023-01-12T06:09:37.512Z,2.45
2023-01-12T06:12:30.176Z,2.12
2023-01-12T06:15:01.847Z,2.10
2023-01-12T06:17:34.101Z,2.65
2023-01-12T06:20:06.915Z,1.92
2023-01-12T06:22:38.939Z,2.17
2023-01-12T06:25:11.481Z,2.25
2023-01-12T06:27:43.037Z,2.00
2023-01-12T06:30:14.575Z,2.10
2023-01-12T06:32:47.145Z,1.98
2023-01-12T06:35:20.274Z,2.00
2023-01-12T06:37:53.157Z,2.10
2023-01-12T06:40:25.128Z,2.40
2023-01-12T06:42:55.814Z,1.87
2023-01-12T06:45:27.779Z,2.30
2023-01-12T06:48:03.945Z,2.22
2023-01-12T06:50:34.871Z,2.70
2023-01-12T06:53:08.006Z,2.08
2023-01-12T06:55:40.154Z,2.17
2023-01-12T06:58:12.440Z,2.00
2023-01-12T07:00:43.664Z,3.15
2023-01-12T07:03:18.990Z,2.00
2023-01-12T07:05:52.401Z,2.77
2023-01-12T07:08:24.930Z,2.00
2023-01-12T07:10:57.914Z,2.65
2023-01-12T07:13:30.435Z,2.80
2023-01-12T07:16:01.973Z,2.52
2023-01-12T07:18:34.339Z,4.30
2023-01-12T07:21:13.567Z,2.42
2023-01-12T07:23:44.447Z,2.20
2023-01-12T07:26:15.438Z,2.52
2023-01-12T07:28:46.030Z,2.50
2023-01-12T07:31:21.823Z,2.70
2023-01-12T07:33:56.423Z,2.58
2023-01-12T07:36:30.209Z,2.40
2023-01-12T07:39:04.919Z,2.10
2023-01-12T07:41:54.530Z,2.77
2023-01-12T07:44:25.471Z,2.87
2023-01-12T07:46:59.829Z,2.20
2023-01-12T07:49:31.889Z,3.00
2023-01-12T07:52:02.678Z,2.92
2023-01-12T07:54:35.797Z,2.40
2023-01-12T07:57:14.804Z,2.90
2023-01-12T07:59:51.166Z,2.08
2023-01-12T08:02:22.721Z,2.70
2023-01-12T08:04:54.931Z,2.50
2023-01-12T08:07:26.944Z,2.17
2023-01-12T08:09:59.788Z,2.67
2023-01-12T08:12:31.825Z,2.42
2023-01-12T08:15:04.070Z,2.00
2023-01-12T08:17:39.552Z,2.60
2023-01-12T08:20:20.569Z,2.45
2023-01-12T08:22:54.477Z,2.37
2023-01-12T08:25:29.207Z,2.30
2023-01-12T08:28:03.386Z,2.33
2023-01-12T08:30:36.673Z,1.82
2023-01-12T08:33:08.987Z,2.45
2023-01-12T08:35:39.863Z,3.12
2023-01-12T08:38:11.215Z,2.22
2023-01-12T08:41:04.965Z,2.05
2023-01-12T08:43:53.214Z,2.12
2023-01-12T08:46:24.173Z,2.08
2023-01-12T08:48:58.259Z,2.10
2023-01-12T08:51:29.316Z,2.20
2023-01-12T08:53:59.798Z,2.40
2023-01-12T08:56:30.903Z,2.37
2023-01-12T08:59:03.485Z,2.00
2023-01-12T09:01:36.417Z,2.12
2023-01-12T09:04:08.424Z,2.00
2023-01-12T09:06:41.251Z,1.85
2023-01-12T09:09:14.572Z,2.00
2023-01-12T09:11:45.954Z,1.92
2023-01-12T09:14:17.788Z,2.10
2023-01-12T09:16:50.216Z,2.12
2023-01-12T09:19:21.857Z,2.02
2023-01-12T09:21:52.416Z,2.08
2023-01-12T09:24:32.441Z,1.70
2023-01-12T09:27:01.125Z,1.95
2023-01-12T09:29:33.365Z,1.95
2023-01-12T09:32:06.673Z,1.67
2023-01-12T09:34:40.023Z,1.87
2023-01-12T09:37:16.607Z,2.12
2023-01-12T09:39:48.007Z,1.83
2023-01-12T09:42:31.854Z,1.87
2023-01-12T09:45:23.301Z,1.80
2023-01-12T09:48:01.065Z,2.20
2023-01-12T09:50:44.959Z,2.20
2023-01-12T09:53:24.955Z,1.70
2023-01-12T09:56:12.986Z,2.37
2023-01-12T09:59:06.218Z,1.92
2023-01-12T10:01:38.449Z,1.42
2023-01-12T10:04:10.819Z,2.02
2023-01-12T10:06:43.720Z,2.25
2023-01-12T10:09:23.629Z,2.00
2023-01-12T10:12:00.896Z,1.60
2023-01-12T10:14:50.470Z,2.62
2023-01-12T10:17:51.762Z,2.37
2023-01-12T10:20:33.343Z,2.10
2023-01-12T10:23:09.459Z,1.80
2023-01-12T10:26:11.744Z,1.65
2023-01-12T10:28:46.286Z,2.40
2023-01-12T10:31:27.079Z,2.15
2023-01-12T10:34:07.127Z,2.10
2023-01-12T10:36:55.799Z,1.62
2023-01-12T10:39:32.421Z,2.30
2023-01-12T10:42:16.631Z,2.15
2023-01-12T10:44:47.755Z,1.92
2023-01-12T10:47:19.539Z,2.70
2023-01-12T10:49:54.599Z,1.95
2023-01-12T10:52:31.882Z,1.80
2023-01-12T10:55:02.553Z,1.92
2023-01-12T10:57:34.997Z,2.20
2023-01-12T11:00:06.477Z,2.17
2023-01-12T11:02:48.203Z,2.30
2023-01-12T11:05:34.902Z,2.00
2023-01-12T11:08:26.339Z,1.70
2023-01-12T11:10:56.865Z,2.20
2023-01-12T11:13:32.069Z,1.90
2023-01-12T11:16:16.553Z,1.70
2023-01-12T11:18:56.357Z,1.60
2023-01-12T11:21:29.956Z,2.20
2023-01-12T11:24:13.428Z,2.17
2023-01-12T11:26:47.705Z,2.17
2023-01-12T11:29:25.295Z,2.10
2023-01-12T11:32:00.238Z,1.90
2023-01-12T11:34:33.773Z,2.00
2023-01-12T11:37:15.320Z,2.20
2023-01-12T11:39:48.797Z,1.90
2023-01-12T11:42:42.567Z,2.22
2023-01-12T11:45:19.066Z,1.80
2023-01-12T11:48:01.868Z,2.20
2023-01-12T11:50:37.326Z,1.67
2023-01-12T11:53:10.859Z,1.70
2023-01-12T11:55:56.844Z,1.80
2023-01-12T11:58:53.351Z,1.80
2023-01-12T12:01:32.959Z,1.62
2023-01-12T12:04:21.627Z,1.70
2023-01-12T12:07:13.071Z,1.60
2023-01-12T12:09:47.844Z,1.65
2023-01-12T12:12:48.810Z,1.40
2023-01-12T12:15:28.880Z,1.65
2023-01-12T12:18:22.032Z,1.70
2023-01-12T12:21:12.238Z,1.30
2023-01-12T12:24:07.155Z,1.52
2023-01-12T12:26:40.851Z,1.60
2023-01-12T12:29:32.294Z,1.50
2023-01-12T12:32:23.399Z,1.40
2023-01-12T12:35:29.145Z,1.50
2023-01-12T12:38:14.201Z,1.40
2023-01-12T12:41:39.757Z,1.37
2023-01-12T12:45:04.252Z,1.40
2023-01-12T12:48:01.927Z,1.65
2023-01-12T12:50:36.374Z,1.30
2023-01-12T12:53:31.450Z,1.52
2023-01-12T12:56:04.624Z,1.32
2023-01-12T12:58:50.584Z,1.37
2023-01-12T13:01:24.197Z,1.10
2023-01-12T13:04:02.298Z,1.35
2023-01-12T13:06:45.243Z,1.20
2023-01-12T13:09:22.367Z,1.20
2023-01-12T13:12:04.843Z,1.10
2023-01-12T13:14:39.279Z,1.30
2023-01-12T13:17:28.278Z,1.10
2023-01-12T13:20:16.568Z,1.10
2023-01-12T13:22:48.831Z,1.40
2023-01-12T13:25:26.732Z,1.20
2023-01-12T13:28:03.217Z,1.12
2023-01-12T13:30:38.465Z,1.10
2023-01-12T13:33:26.703Z,1.12
2023-01-12T13:36:10.145Z,0.90
2023-01-12T13:38:52.531Z,1.52
2023-01-12T13:41:44.094Z,1.27
2023-01-12T13:44:24.582Z,1.42
2023-01-12T13:46:59.825Z,1.15
2023-01-12T13:49:33.651Z,1.00
2023-01-12T13:52:10.823Z,0.80
2023-01-12T13:54:44.547Z,1.35
2023-01-12T13:57:27.423Z,1.05
2023-01-12T14:00:12.563Z,1.07
2023-01-12T14:02:44.050Z,1.10
2023-01-12T14:05:17.665Z,0.90
2023-01-12T14:08:03.130Z,0.93
2023-01-12T14:10:47.693Z,0.90
2023-01-12T14:13:21.840Z,1.35
2023-01-12T14:16:19.952Z,1.12
2023-01-12T14:18:53.595Z,1.00
2023-01-12T14:21:29.608Z,1.30
2023-01-12T14:24:21.007Z,1.10
2023-01-12T14:26:54.801Z,1.00
2023-01-12T14:29:26.866Z,1.10
2023-01-12T14:31:57.433Z,0.98
2023-01-12T14:34:32.748Z,1.02
2023-01-12T14:37:07.570Z,0.90
2023-01-12T14:39:40.733Z,1.47
2023-01-12T14:42:37.632Z,1.00
2023-01-12T14:45:39.543Z,1.47
2023-01-12T14:48:29.183Z,1.40
2023-01-12T14:51:05.846Z,1.00
2023-01-12T14:53:42.055Z,1.00
2023-01-12T14:56:18.705Z,1.10
2023-01-12T14:58:50.045Z,1.10
2023-01-12T15:01:40.251Z,1.15
2023-01-12T15:04:17.310Z,1.22
2023-01-12T15:06:53.703Z,1.37
2023-01-12T15:09:30.935Z,0.82
2023-01-12T15:12:13.407Z,1.00
2023-01-12T15:14:43.891Z,1.00
2023-01-12T15:17:35.111Z,1.52
2023-01-12T15:20:25.151Z,1.17
2023-01-12T15:23:13.890Z,1.15
2023-01-12T15:25:47.366Z,0.80
2023-01-12T15:28:19.637Z,1.00
2023-01-12T15:30:50.502Z,1.10
2023-01-12T15:33:22.910Z,0.72
2023-01-12T15:35:58.708Z,1.10
2023-01-12T15:38:30.044Z,0.80
2023-01-12T15:41:00.794Z,1.00
2023-01-12T15:43:32.770Z,1.17
2023-01-12T15:46:05.512Z,1.00
2023-01-12T15:48:35.973Z,1.10
2023-01-12T15:51:09.527Z,1.00
2023-01-12T15:53:41.577Z,1.00
2023-01-12T15:56:15.633Z,1.05
2023-01-12T15:58:46.194Z,1.00
2023-01-12T16:01:18.708Z,0.85
2023-01-12T16:04:35.700Z,1.10
2023-01-12T16:06:25.013Z,1.10
2023-01-12T16:08:55.602Z,1.07
2023-01-12T16:11:26.450Z,1.42
2023-01-12T16:13:57.865Z,1.35
2023-01-12T16:16:29.230Z,1.20
2023-01-12T16:19:01.282Z,0.90
2023-01-12T16:21:34.191Z,1.35
2023-01-12T16:24:04.982Z,1.57
2023-01-12T16:26:38.360Z,0.88
2023-01-12T16:29:09.356Z,1.07
2023-01-12T16:31:40.448Z,1.00
2023-01-12T16:34:12.595Z,1.10
2023-01-12T16:36:43.387Z,1.40
2023-01-12T16:39:15.182Z,1.10
2023-01-12T16:41:45.786Z,1.30
2023-01-12T16:44:16.419Z,1.37
2023-01-12T16:46:48.897Z,1.20
2023-01-12T16:49:20.500Z,1.37
2023-01-12T16:51:50.936Z,2.20
2023-01-12T16:54:23.410Z,1.75
2023-01-12T16:56:56.199Z,1.27
2023-01-12T16:59:33.735Z,2.22
2023-01-12T17:02:00.950Z,1.12
2023-01-12T17:04:33.370Z,1.27
2023-01-12T17:07:08.654Z,1.22
2023-01-12T17:09:42.459Z,1.60
2023-01-12T17:12:12.837Z,1.47
2023-01-12T17:14:45.744Z,1.60
2023-01-12T17:17:16.868Z,1.40
2023-01-12T17:19:48.119Z,1.40
2023-01-12T17:22:20.319Z,1.40
2023-01-12T17:24:52.462Z,1.40
2023-01-12T17:27:23.216Z,1.25
2023-01-12T17:29:56.264Z,1.15
2023-01-12T17:32:29.517Z,3.42
2023-01-12T17:35:00.219Z,3.40
2023-01-12T17:37:30.755Z,1.90
2023-01-12T17:40:03.162Z,1.57
2023-01-12T17:42:53.142Z,1.60
2023-01-12T17:45:25.790Z,1.67
2023-01-12T17:47:58.481Z,1.35
2023-01-12T17:50:30.492Z,1.72
2023-01-12T17:53:01.166Z,2.75
2023-01-12T17:55:36.761Z,1.87
2023-01-12T17:58:06.381Z,1.60
2023-01-12T18:00:39.470Z,1.20
2023-01-12T18:03:10.473Z,1.40
2023-01-12T18:05:44.534Z,1.70
2023-01-12T18:08:14.092Z,3.02
2023-01-12T18:10:46.120Z,2.50
2023-01-12T18:13:16.740Z,2.50
2023-01-12T18:15:47.889Z,2.35
2023-01-12T18:18:18.273Z,1.47
2023-01-12T18:20:51.744Z,1.67
2023-01-12T18:23:23.070Z,1.30
2023-01-12T18:25:53.521Z,1.05
2023-01-12T18:28:25.948Z,1.40
2023-01-12T18:31:12.762Z,1.77
2023-01-12T18:33:45.280Z,1.57
2023-01-12T18:36:20.089Z,1.60
2023-01-12T18:38:51.929Z,1.27
2023-01-12T18:41:42.100Z,1.60
2023-01-12T18:44:16.986Z,1.47
2023-01-12T18:47:05.534Z,1.72
2023-01-12T18:49:36.873Z,1.40
2023-01-12T18:52:27.560Z,1.10
2023-01-12T18:54:59.350Z,1.40
2023-01-12T18:57:32.925Z,1.50
2023-01-12T19:00:08.449Z,2.10
2023-01-12T19:02:41.135Z,4.25
2023-01-12T19:05:20.632Z,4.15
2023-01-12T19:08:01.148Z,4.75
2023-01-12T19:10:34.071Z,1.77
2023-01-12T19:13:19.456Z,1.85
2023-01-12T19:16:11.643Z,1.30
2023-01-12T19:18:42.052Z,1.35
2023-01-12T19:21:31.083Z,1.30
2023-01-12T19:24:19.259Z,1.70
2023-01-12T19:27:08.938Z,1.80
2023-01-12T19:29:41.625Z,1.65
2023-01-12T19:32:15.769Z,1.70
2023-01-12T19:34:50.372Z,1.60
2023-01-12T19:37:20.399Z,1.30
2023-01-12T19:40:09.893Z,1.10
2023-01-12T19:42:58.680Z,1.42
2023-01-12T19:45:30.677Z,1.37
2023-01-12T19:48:04.855Z,1.98
2023-01-12T19:50:36.954Z,0.90
2023-01-12T19:53:09.857Z,1.55
2023-01-12T19:55:44.577Z,1.30
2023-01-12T19:58:16.707Z,1.57
2023-01-12T20:00:47.724Z,1.20
2023-01-12T20:03:22.704Z,1.27
2023-01-12T20:05:54.355Z,1.12
2023-01-12T20:08:26.642Z,1.47
2023-01-12T20:10:59.606Z,1.30
2023-01-12T20:13:37.476Z,1.50
2023-01-12T20:16:11.696Z,1.60
2023-01-12T20:18:43.638Z,1.50
2023-01-12T20:21:15.836Z,1.27
2023-01-12T20:23:47.871Z,1.35
2023-01-12T20:26:18.640Z,1.42
2023-01-12T20:28:49.126Z,1.50
2023-01-12T20:31:23.422Z,1.12
2023-01-12T20:33:55.305Z,1.35
2023-01-12T20:36:29.336Z,1.60
2023-01-12T20:39:00.978Z,1.17
2023-01-12T20:41:32.788Z,1.40
2023-01-12T20:44:05.932Z,1.47
2023-01-12T20:46:39.491Z,1.65
2023-01-12T20:49:10.007Z,1.50
2023-01-12T20:51:40.486Z,1.90
2023-01-12T20:54:11.545Z,1.60
2023-01-12T20:56:43.159Z,1.75
2023-01-12T20:59:17.617Z,1.65
2023-01-12T21:01:48.164Z,1.65
2023-01-12T21:04:23.889Z,1.65
2023-01-12T21:06:55.593Z,1.30
2023-01-12T21:09:26.125Z,1.50
2023-01-12T21:11:58.345Z,1.30
2023-01-12T21:14:30.433Z,1.37
2023-01-12T21:17:02.480Z,1.50
2023-01-12T21:19:39.161Z,1.60
2023-01-12T21:22:13.627Z,1.40
2023-01-12T21:24:44.212Z,1.47
2023-01-12T21:27:14.724Z,2.08
2023-01-12T21:29:45.998Z,1.70
2023-01-12T21:32:19.751Z,1.60
2023-01-12T21:34:51.449Z,1.50
2023-01-12T21:37:23.754Z,1.67
2023-01-12T21:39:54.377Z,2.08
2023-01-12T21:42:43.079Z,1.90
2023-01-12T21:45:18.312Z,2.00
2023-01-12T21:47:48.450Z,1.70
2023-01-12T21:50:29.617Z,1.80
2023-01-12T21:53:02.748Z,1.60
2023-01-12T21:55:37.091Z,1.95
2023-01-12T21:58:12.523Z,1.95
2023-01-12T22:00:46.191Z,2.12
2023-01-12T22:03:18.757Z,2.05
2023-01-12T22:05:50.777Z,2.72
2023-01-12T22:08:22.553Z,2.10
2023-01-12T22:10:53.209Z,2.30
2023-01-12T22:13:23.913Z,2.35
2023-01-12T22:15:55.667Z,1.98
2023-01-12T22:18:26.840Z,2.10
2023-01-12T22:21:03.414Z,2.30
2023-01-12T22:23:36.111Z,2.20
2023-01-12T22:26:09.104Z,2.22
2023-01-12T22:28:42.570Z,1.80
2023-01-12T22:31:16.646Z,2.00
2023-01-12T22:33:51.987Z,2.00
2023-01-12T22:36:23.683Z,1.90
2023-01-12T22:38:57.471Z,1.80
2023-01-12T22:41:29.206Z,1.70
2023-01-12T22:43:59.926Z,1.70
2023-01-12T22:46:30.585Z,1.77
2023-01-12T22:49:02.934Z,1.60
2023-01-12T22:51:33.589Z,1.60
2023-01-12T22:54:04.494Z,1.90
2023-01-12T22:56:36.790Z,1.50
2023-01-12T22:59:09.932Z,1.70
2023-01-12T23:01:40.554Z,1.67
2023-01-12T23:04:13.617Z,1.85
2023-01-12T23:06:45.679Z,1.67
2023-01-12T23:09:16.464Z,1.87
2023-01-12T23:11:47.003Z,1.70
2023-01-12T23:14:18.118Z,1.80
2023-01-12T23:16:49.781Z,1.80
2023-01-12T23:19:20.386Z,1.70
2023-01-12T23:21:51.031Z,1.60
2023-01-12T23:24:21.789Z,1.90
2023-01-12T23:26:52.380Z,1.75
2023-01-12T23:29:23.252Z,1.70
2023-01-12T23:31:54.748Z,1.80
2023-01-12T23:34:27.078Z,1.80
2023-01-12T23:36:57.739Z,1.50
2023-01-12T23:39:28.511Z,1.52
2023-01-12T23:42:00.292Z,1.52
2023-01-12T23:44:31.129Z,1.40
2023-01-12T23:47:03.897Z,1.40
2023-01-12T23:49:34.538Z,1.50
2023-01-12T23:52:07.129Z,1.40
2023-01-12T23:54:38.850Z,1.30
2023-01-12T23:57:09.885Z,1.37
2023-01-12T23:59:41.279Z,1.47
